AirNav   TITAN Aviation Fuels
 
 1217 users online  

T24 Pineland Municipal Airport
Pineland, Texas, USA

GOING TO PINELAND?


FAA INFORMATION EFFECTIVE 11 AUGUST 2022

Location

FAA Identifier: T24
Lat/Long: 31-14-00.6790N 093-58-54.6800W
31-14.011317N 093-58.911333W
31.2335219,-93.9818556
(estimated)
Elevation: 260 ft. / 79 m (estimated)
Variation: 05E (1985)
From city: 1 mile SW of PINELAND, TX
Time zone: UTC -5 (UTC -6 during Standard Time)
Zip code: 75968

Airport Operations

Airport use: Open to the public
Activation date: 03/1961
Control tower: no
ARTCC: HOUSTON CENTER
FSS: MONTGOMERY COUNTY FLIGHT SERVICE STATION
NOTAMs facility: CXO (NOTAM-D service available)
Attendance: UNATNDD
Wind indicator: lighted
Segmented circle: yes
Lights: ACTVT MIRL RY 17/35 - CTAF.
Beacon: white-green (lighted land airport)
Operates sunset to sunrise.

Airport Communications

CTAF/UNICOM: 122.8

Nearby radio navigation aids

VOR radial/distance  VOR name  Freq  Var
LFKr079/38.0LUFKIN VORTAC112.1005E
FXUr279/(39.8)POLK VOR108.4002E

 
NDB name  Hdg/Dist  Freq  Var  ID
AMASON162/37.034104ECZJ -.-. --.. .---

Airport Services

Airframe service: NONE
Powerplant service: NONE
Bottled oxygen: NONE
Bulk oxygen: NONE

Runway Information

Runway 17/35

Dimensions: 3700 x 75 ft. / 1128 x 23 m
Surface: asphalt, in poor condition
EXTSV PAVEMENT CRACKING WITH VEGETATION GROWING THRU. LOOSE AGGREGATE ON RWY.
Weight bearing capacity: 
Single wheel: 14.0
Runway edge lights: medium intensity
Runway edge markings: NO MARKINGS.
RUNWAY 17  RUNWAY 35
Traffic pattern: leftleft
Markings: basicbasic
Obstructions: 67 ft. trees, 1540 ft. from runway, 20:1 slope to clear60 ft. trees, 1300 ft. from runway, 18:1 slope to clear

Airport Ownership and Management from official FAA records

Ownership: Publicly-owned
Owner: CITY OF PINELAND
PO BOX 6
PINELAND, TX 75968
Phone 409-584-2390
Manager: CHARLES CORLEY
PO BOX 6
PINELAND, TX 75968
Phone 409-584-2390

Airport Operational Statistics

Aircraft based on the field: 7
Single engine airplanes: 7
    
Aircraft operations: avg 50/month *
67% local general aviation
33% transient general aviation
* for 12-month period ending 25 March 2019

Additional Remarks

FOR CD CTC HOUSTON ARTCC AT 281-230-5622.

Instrument Procedures

There are no published instrument procedures at T24.

Some nearby airports with instrument procedures:

KJAS - Jasper County Airport-Bell Field (21 nm S)
3R4 - Hart Airport (32 nm NE)
L39 - Leesville Airport (33 nm E)
F17 - Center Municipal Airport (37 nm N)
KLFK - Angelina County Airport (39 nm W)
 
Loc | Ops | Rwys | IFR | FBO | Links
Com | Nav | Svcs | Stats | Notes
Area around T24 (Pineland Municipal Airport)
 
Road maps at: MapQuest Bing Google
 
Aerial photo
WARNING: Photo may not be current or correct
Aerial photo of T24 (Pineland Municipal Airport)
Do you have a better or more recent aerial photo of Pineland Municipal Airport that you would like to share? If so, please send us your photo.

 
Sectional chart

 
Airport distance calculator
Flying to Pineland Municipal Airport? Find the distance to fly.

From to T24

Sunrise and sunset
Times for 16-Aug-2022
 Local
(UTC-5)
 Zulu
(UTC)
Morning civil twilight06:1811:18
Sunrise06:4311:43
Sunset19:5700:57
Evening civil twilight20:2301:23

Current date and time
Zulu (UTC)  16-Aug-2022 12:25:58
Local (UTC-5)  16-Aug-2022 07:25:58
 
METAR
KJAS 
21nm S 
161155Z AUTO 00000KT 3/4SM BR VV005 22/22 A2994 RMK AO2 VIS 1/4V3
KF17 
37nm N 
161203Z AUTO 00000KT 10SM CLR 25/23 A2996 RMK AO2
KAQV 
38nm NE 
161157Z AUTO 00000KT 5SM BR CLR 24/23 A2994 RMK AO2 SLP133 T02440228 10267 20239 51005
KLFK 
39nm W 
161153Z AUTO 00000KT 9SM CLR 23/22 A2995 RMK AO2 SLP136 T02280222 10278 20228 51005
KDRI 
41nm SE 
151335Z AUTO 00000KT 27/25 A3002 RMK AO2 T02700247 PWINO
TAF
KLFK 
39nm W 
161125Z 1612/1712 VRB03KT P6SM BKN250 FM161400 VRB04KT P6SM SCT015 BKN250 FM161600 22005KT P6SM SCT030 SCT250 FM161800 19005KT P6SM SCT050 SCT250 FM170100 17004KT P6SM SCT250
NOTAMs
Click for the latest NOTAMs
NOTAMs are issued by the DoD/FAA and will open in a separate window not controlled by AirNav.

 

 
 

Would you like to see your business listed on this page?

 If your business provides an interesting product or service to pilots, flight crews, aircraft, or users of the Pineland Municipal Airport, you should consider listing it here.  To start the listing process, click on the button below
 
Add a business
 

Other Pages about Pineland Municipal Airport

Update a link
 
Copyright © AirNav, LLC. All rights reserved. Privacy Policy  Contact